sensor_id;sensor_type;location;lat;lon;timestamp;P1;durP1;ratioP1;P2;durP2;ratioP2
73898;SDS011;62234;50.892;12.724;2023-10-31T00:00:44;8.02;;;4.20;;
73898;SDS011;62234;50.892;12.724;2023-10-31T00:03:10;9.75;;;4.40;;
73898;SDS011;62234;50.892;12.724;2023-10-31T00:05:36;5.80;;;4.47;;
73898;SDS011;62234;50.892;12.724;2023-10-31T00:08:02;7.55;;;4.28;;
73898;SDS011;62234;50.892;12.724;2023-10-31T00:10:27;6.75;;;4.85;;
73898;SDS011;62234;50.892;12.724;2023-10-31T00:12:54;7.38;;;4.35;;
73898;SDS011;62234;50.892;12.724;2023-10-31T00:15:20;6.85;;;4.60;;
73898;SDS011;62234;50.892;12.724;2023-10-31T00:17:46;6.07;;;4.53;;
73898;SDS011;62234;50.892;12.724;2023-10-31T00:20:12;8.95;;;4.72;;
73898;SDS011;62234;50.892;12.724;2023-10-31T00:22:38;6.10;;;4.68;;
73898;SDS011;62234;50.892;12.724;2023-10-31T00:25:04;8.18;;;4.13;;
73898;SDS011;62234;50.892;12.724;2023-10-31T00:27:30;8.95;;;4.95;;
73898;SDS011;62234;50.892;12.724;2023-10-31T00:29:56;7.60;;;4.47;;
73898;SDS011;62234;50.892;12.724;2023-10-31T00:32:22;8.48;;;4.65;;
73898;SDS011;62234;50.892;12.724;2023-10-31T00:34:50;7.35;;;4.25;;
73898;SDS011;62234;50.892;12.724;2023-10-31T00:37:16;6.18;;;4.53;;
73898;SDS011;62234;50.892;12.724;2023-10-31T00:39:42;5.15;;;3.78;;
73898;SDS011;62234;50.892;12.724;2023-10-31T00:42:08;11.63;;;4.30;;
73898;SDS011;62234;50.892;12.724;2023-10-31T00:44:34;6.75;;;4.22;;
73898;SDS011;62234;50.892;12.724;2023-10-31T00:47:00;8.20;;;5.03;;
73898;SDS011;62234;50.892;12.724;2023-10-31T00:49:26;6.72;;;4.75;;
73898;SDS011;62234;50.892;12.724;2023-10-31T00:51:52;5.78;;;3.80;;
73898;SDS011;62234;50.892;12.724;2023-10-31T00:54:18;6.67;;;4.50;;
73898;SDS011;62234;50.892;12.724;2023-10-31T00:56:44;6.20;;;4.25;;
73898;SDS011;62234;50.892;12.724;2023-10-31T00:59:10;9.75;;;4.82;;
73898;SDS011;62234;50.892;12.724;2023-10-31T01:01:36;8.05;;;4.72;;
73898;SDS011;62234;50.892;12.724;2023-10-31T01:04:02;7.30;;;4.60;;
73898;SDS011;62234;50.892;12.724;2023-10-31T01:06:28;6.85;;;4.50;;
73898;SDS011;62234;50.892;12.724;2023-10-31T01:08:54;7.15;;;4.32;;
73898;SDS011;62234;50.892;12.724;2023-10-31T01:11:20;6.55;;;3.60;;
73898;SDS011;62234;50.892;12.724;2023-10-31T01:13:46;5.80;;;3.22;;
73898;SDS011;62234;50.892;12.724;2023-10-31T01:16:12;4.85;;;3.90;;
73898;SDS011;62234;50.892;12.724;2023-10-31T01:18:38;6.05;;;3.55;;
73898;SDS011;62234;50.892;12.724;2023-10-31T01:21:04;5.72;;;4.00;;
73898;SDS011;62234;50.892;12.724;2023-10-31T01:23:30;7.10;;;3.50;;
73898;SDS011;62234;50.892;12.724;2023-10-31T01:25:56;7.35;;;3.90;;
73898;SDS011;62234;50.892;12.724;2023-10-31T01:28:22;7.85;;;4.05;;
73898;SDS011;62234;50.892;12.724;2023-10-31T01:30:48;5.60;;;3.65;;
73898;SDS011;62234;50.892;12.724;2023-10-31T01:33:13;5.90;;;4.13;;
73898;SDS011;62234;50.892;12.724;2023-10-31T01:35:40;7.10;;;4.55;;
73898;SDS011;62234;50.892;12.724;2023-10-31T01:38:06;7.50;;;3.90;;
73898;SDS011;62234;50.892;12.724;2023-10-31T01:40:32;6.78;;;4.45;;
73898;SDS011;62234;50.892;12.724;2023-10-31T01:42:58;7.75;;;4.70;;
73898;SDS011;62234;50.892;12.724;2023-10-31T01:45:23;6.90;;;4.00;;
73898;SDS011;62234;50.892;12.724;2023-10-31T01:47:49;8.70;;;4.40;;
73898;SDS011;62234;50.892;12.724;2023-10-31T01:50:16;6.03;;;3.88;;
73898;SDS011;62234;50.892;12.724;2023-10-31T01:52:43;7.68;;;4.20;;
73898;SDS011;62234;50.892;12.724;2023-10-31T01:55:09;6.85;;;4.53;;
73898;SDS011;62234;50.892;12.724;2023-10-31T01:57:35;7.80;;;4.22;;
73898;SDS011;62234;50.892;12.724;2023-10-31T02:00:01;6.45;;;4.75;;
73898;SDS011;62234;50.892;12.724;2023-10-31T02:02:27;8.25;;;4.40;;
73898;SDS011;62234;50.892;12.724;2023-10-31T02:04:54;6.00;;;4.32;;
73898;SDS011;62234;50.892;12.724;2023-10-31T02:07:20;9.77;;;4.60;;
73898;SDS011;62234;50.892;12.724;2023-10-31T02:09:46;6.32;;;4.05;;
73898;SDS011;62234;50.892;12.724;2023-10-31T02:12:30;5.68;;;3.70;;
73898;SDS011;62234;50.892;12.724;2023-10-31T02:14:56;5.78;;;3.83;;
73898;SDS011;62234;50.892;12.724;2023-10-31T02:17:22;6.80;;;3.40;;
73898;SDS011;62234;50.892;12.724;2023-10-31T02:19:48;6.97;;;3.45;;
73898;SDS011;62234;50.892;12.724;2023-10-31T02:22:14;5.68;;;3.30;;
73898;SDS011;62234;50.892;12.724;2023-10-31T02:24:40;6.63;;;3.47;;
73898;SDS011;62234;50.892;12.724;2023-10-31T02:27:06;5.57;;;3.38;;
73898;SDS011;62234;50.892;12.724;2023-10-31T02:29:32;5.60;;;3.40;;
73898;SDS011;62234;50.892;12.724;2023-10-31T02:31:58;6.53;;;3.30;;
73898;SDS011;62234;50.892;12.724;2023-10-31T02:34:24;4.38;;;3.40;;
73898;SDS011;62234;50.892;12.724;2023-10-31T02:36:51;5.32;;;3.80;;
73898;SDS011;62234;50.892;12.724;2023-10-31T02:39:17;6.47;;;3.97;;
73898;SDS011;62234;50.892;12.724;2023-10-31T02:41:43;6.93;;;4.13;;
73898;SDS011;62234;50.892;12.724;2023-10-31T02:44:09;7.38;;;4.35;;
73898;SDS011;62234;50.892;12.724;2023-10-31T02:46:38;7.15;;;4.57;;
73898;SDS011;62234;50.892;12.724;2023-10-31T02:49:04;6.78;;;4.32;;
73898;SDS011;62234;50.892;12.724;2023-10-31T02:51:30;6.60;;;4.60;;
73898;SDS011;62234;50.892;12.724;2023-10-31T02:53:56;9.55;;;4.55;;
73898;SDS011;62234;50.892;12.724;2023-10-31T02:56:22;7.43;;;4.22;;
73898;SDS011;62234;50.892;12.724;2023-10-31T02:58:48;6.85;;;4.18;;
73898;SDS011;62234;50.892;12.724;2023-10-31T03:01:14;6.53;;;4.53;;
73898;SDS011;62234;50.892;12.724;2023-10-31T03:03:40;5.70;;;3.70;;
73898;SDS011;62234;50.892;12.724;2023-10-31T03:06:06;5.30;;;3.33;;
73898;SDS011;62234;50.892;12.724;2023-10-31T03:08:32;4.22;;;3.15;;
73898;SDS011;62234;50.892;12.724;2023-10-31T03:10:58;4.70;;;2.65;;
73898;SDS011;62234;50.892;12.724;2023-10-31T03:13:24;5.90;;;3.28;;
73898;SDS011;62234;50.892;12.724;2023-10-31T03:15:50;6.20;;;3.90;;
73898;SDS011;62234;50.892;12.724;2023-10-31T03:18:16;5.43;;;3.22;;
73898;SDS011;62234;50.892;12.724;2023-10-31T03:20:45;4.65;;;3.22;;
73898;SDS011;62234;50.892;12.724;2023-10-31T03:23:11;3.78;;;2.65;;
73898;SDS011;62234;50.892;12.724;2023-10-31T03:25:37;4.18;;;3.13;;
73898;SDS011;62234;50.892;12.724;2023-10-31T03:28:03;3.13;;;2.83;;
73898;SDS011;62234;50.892;12.724;2023-10-31T03:30:30;4.82;;;3.13;;
73898;SDS011;62234;50.892;12.724;2023-10-31T03:32:55;7.55;;;2.92;;
73898;SDS011;62234;50.892;12.724;2023-10-31T03:38:25;3.67;;;2.75;;
73898;SDS011;62234;50.892;12.724;2023-10-31T03:40:51;2.72;;;2.17;;
73898;SDS011;62234;50.892;12.724;2023-10-31T03:43:17;2.47;;;2.08;;
73898;SDS011;62234;50.892;12.724;2023-10-31T03:45:43;2.20;;;1.33;;
73898;SDS011;62234;50.892;12.724;2023-10-31T03:48:09;1.33;;;1.15;;
73898;SDS011;62234;50.892;12.724;2023-10-31T03:50:35;2.47;;;1.25;;
73898;SDS011;62234;50.892;12.724;2023-10-31T03:53:01;2.03;;;1.45;;
73898;SDS011;62234;50.892;12.724;2023-10-31T03:55:27;0.85;;;0.85;;
73898;SDS011;62234;50.892;12.724;2023-10-31T03:57:55;1.15;;;1.15;;
73898;SDS011;62234;50.892;12.724;2023-10-31T04:00:21;1.27;;;1.05;;
73898;SDS011;62234;50.892;12.724;2023-10-31T04:02:47;5.15;;;2.00;;
73898;SDS011;62234;50.892;12.724;2023-10-31T04:05:13;1.20;;;1.10;;
73898;SDS011;62234;50.892;12.724;2023-10-31T04:07:39;1.15;;;0.95;;
73898;SDS011;62234;50.892;12.724;2023-10-31T04:10:05;1.15;;;0.95;;
73898;SDS011;62234;50.892;12.724;2023-10-31T04:12:31;1.83;;;0.80;;
73898;SDS011;62234;50.892;12.724;2023-10-31T04:14:57;0.77;;;0.60;;
73898;SDS011;62234;50.892;12.724;2023-10-31T04:17:23;1.02;;;0.60;;
73898;SDS011;62234;50.892;12.724;2023-10-31T04:19:49;1.70;;;0.70;;
73898;SDS011;62234;50.892;12.724;2023-10-31T04:22:15;0.57;;;0.57;;
73898;SDS011;62234;50.892;12.724;2023-10-31T04:24:41;0.63;;;0.47;;
73898;SDS011;62234;50.892;12.724;2023-10-31T04:27:07;0.60;;;0.60;;
73898;SDS011;62234;50.892;12.724;2023-10-31T04:29:33;1.25;;;0.68;;
73898;SDS011;62234;50.892;12.724;2023-10-31T04:31:58;0.90;;;0.50;;
73898;SDS011;62234;50.892;12.724;2023-10-31T04:34:24;2.85;;;0.60;;
73898;SDS011;62234;50.892;12.724;2023-10-31T04:36:50;1.08;;;0.70;;
73898;SDS011;62234;50.892;12.724;2023-10-31T04:39:16;0.60;;;0.60;;
73898;SDS011;62234;50.892;12.724;2023-10-31T04:41:42;1.55;;;0.45;;
73898;SDS011;62234;50.892;12.724;2023-10-31T04:44:08;0.30;;;0.30;;
73898;SDS011;62234;50.892;12.724;2023-10-31T04:46:34;0.50;;;0.50;;
73898;SDS011;62234;50.892;12.724;2023-10-31T04:49:00;0.52;;;0.40;;
73898;SDS011;62234;50.892;12.724;2023-10-31T04:51:26;1.30;;;0.70;;
73898;SDS011;62234;50.892;12.724;2023-10-31T04:53:52;0.40;;;0.40;;
73898;SDS011;62234;50.892;12.724;2023-10-31T04:56:18;0.73;;;0.50;;
73898;SDS011;62234;50.892;12.724;2023-10-31T04:58:44;0.30;;;0.30;;
73898;SDS011;62234;50.892;12.724;2023-10-31T05:01:13;0.73;;;0.52;;
73898;SDS011;62234;50.892;12.724;2023-10-31T05:03:39;0.22;;;0.20;;
73898;SDS011;62234;50.892;12.724;2023-10-31T05:06:05;0.20;;;0.20;;
73898;SDS011;62234;50.892;12.724;2023-10-31T05:08:32;0.20;;;0.20;;
73898;SDS011;62234;50.892;12.724;2023-10-31T05:10:58;0.20;;;0.20;;
73898;SDS011;62234;50.892;12.724;2023-10-31T05:13:24;0.13;;;0.13;;
73898;SDS011;62234;50.892;12.724;2023-10-31T05:15:50;0.20;;;0.20;;
73898;SDS011;62234;50.892;12.724;2023-10-31T05:18:16;0.15;;;0.10;;
73898;SDS011;62234;50.892;12.724;2023-10-31T05:20:43;1.92;;;0.28;;
73898;SDS011;62234;50.892;12.724;2023-10-31T05:23:09;0.85;;;0.40;;
73898;SDS011;62234;50.892;12.724;2023-10-31T05:25:35;0.20;;;0.10;;
73898;SDS011;62234;50.892;12.724;2023-10-31T05:28:01;0.20;;;0.15;;
73898;SDS011;62234;50.892;12.724;2023-10-31T05:30:27;0.15;;;0.10;;
73898;SDS011;62234;50.892;12.724;2023-10-31T05:32:53;0.20;;;0.20;;
73898;SDS011;62234;50.892;12.724;2023-10-31T05:35:19;0.52;;;0.10;;
73898;SDS011;62234;50.892;12.724;2023-10-31T05:37:45;0.13;;;0.13;;
73898;SDS011;62234;50.892;12.724;2023-10-31T05:40:12;0.35;;;0.22;;
73898;SDS011;62234;50.892;12.724;2023-10-31T05:42:38;0.45;;;0.45;;
73898;SDS011;62234;50.892;12.724;2023-10-31T05:45:04;0.77;;;0.20;;
73898;SDS011;62234;50.892;12.724;2023-10-31T05:47:30;0.20;;;0.20;;
73898;SDS011;62234;50.892;12.724;2023-10-31T05:49:56;0.10;;;0.10;;
73898;SDS011;62234;50.892;12.724;2023-10-31T05:52:22;0.20;;;0.20;;
73898;SDS011;62234;50.892;12.724;2023-10-31T05:54:48;0.40;;;0.08;;
73898;SDS011;62234;50.892;12.724;2023-10-31T05:57:14;0.15;;;0.15;;
73898;SDS011;62234;50.892;12.724;2023-10-31T05:59:40;0.32;;;0.20;;
73898;SDS011;62234;50.892;12.724;2023-10-31T06:02:06;0.10;;;0.10;;
73898;SDS011;62234;50.892;12.724;2023-10-31T06:04:32;0.30;;;0.30;;
73898;SDS011;62234;50.892;12.724;2023-10-31T06:06:58;0.22;;;0.10;;
73898;SDS011;62234;50.892;12.724;2023-10-31T06:09:24;0.22;;;0.22;;
73898;SDS011;62234;50.892;12.724;2023-10-31T06:11:50;0.13;;;0.13;;
73898;SDS011;62234;50.892;12.724;2023-10-31T06:14:16;0.10;;;0.10;;
73898;SDS011;62234;50.892;12.724;2023-10-31T06:16:45;0.75;;;0.10;;
73898;SDS011;62234;50.892;12.724;2023-10-31T06:19:11;1.85;;;0.10;;
73898;SDS011;62234;50.892;12.724;2023-10-31T06:21:37;0.13;;;0.10;;
73898;SDS011;62234;50.892;12.724;2023-10-31T06:24:03;0.10;;;0.10;;
73898;SDS011;62234;50.892;12.724;2023-10-31T06:26:29;0.98;;;0.40;;
73898;SDS011;62234;50.892;12.724;2023-10-31T06:28:55;0.22;;;0.10;;
73898;SDS011;62234;50.892;12.724;2023-10-31T06:31:21;0.00;;;0.00;;
73898;SDS011;62234;50.892;12.724;2023-10-31T06:33:47;0.03;;;0.03;;
73898;SDS011;62234;50.892;12.724;2023-10-31T06:36:13;0.05;;;0.05;;
73898;SDS011;62234;50.892;12.724;2023-10-31T06:38:40;0.30;;;0.00;;
73898;SDS011;62234;50.892;12.724;2023-10-31T06:41:06;0.00;;;0.00;;
73898;SDS011;62234;50.892;12.724;2023-10-31T06:43:32;1.10;;;0.20;;
73898;SDS011;62234;50.892;12.724;2023-10-31T06:45:58;0.30;;;0.10;;
73898;SDS011;62234;50.892;12.724;2023-10-31T06:48:25;0.63;;;0.08;;
73898;SDS011;62234;50.892;12.724;2023-10-31T06:50:51;0.13;;;0.03;;
73898;SDS011;62234;50.892;12.724;2023-10-31T06:53:17;0.00;;;0.00;;
73898;SDS011;62234;50.892;12.724;2023-10-31T06:55:43;0.00;;;0.00;;
73898;SDS011;62234;50.892;12.724;2023-10-31T06:58:09;0.55;;;0.10;;
73898;SDS011;62234;50.892;12.724;2023-10-31T07:00:35;0.05;;;0.00;;
73898;SDS011;62234;50.892;12.724;2023-10-31T07:03:02;0.20;;;0.00;;
73898;SDS011;62234;50.892;12.724;2023-10-31T07:05:31;0.00;;;0.00;;
73898;SDS011;62234;50.892;12.724;2023-10-31T07:07:57;2.00;;;0.03;;
73898;SDS011;62234;50.892;12.724;2023-10-31T07:10:23;0.00;;;0.00;;
73898;SDS011;62234;50.892;12.724;2023-10-31T07:12:49;0.00;;;0.00;;
73898;SDS011;62234;50.892;12.724;2023-10-31T07:15:15;1.08;;;0.00;;
73898;SDS011;62234;50.892;12.724;2023-10-31T07:17:41;0.15;;;0.00;;
73898;SDS011;62234;50.892;12.724;2023-10-31T07:20:07;0.30;;;0.20;;
73898;SDS011;62234;50.892;12.724;2023-10-31T07:22:33;0.73;;;0.20;;
73898;SDS011;62234;50.892;12.724;2023-10-31T07:24:59;0.08;;;0.08;;
73898;SDS011;62234;50.892;12.724;2023-10-31T07:27:28;0.10;;;0.05;;
73898;SDS011;62234;50.892;12.724;2023-10-31T07:29:54;0.00;;;0.00;;
73898;SDS011;62234;50.892;12.724;2023-10-31T07:32:20;0.50;;;0.10;;
73898;SDS011;62234;50.892;12.724;2023-10-31T07:34:47;0.00;;;0.00;;
73898;SDS011;62234;50.892;12.724;2023-10-31T07:37:13;0.30;;;0.10;;
73898;SDS011;62234;50.892;12.724;2023-10-31T07:39:38;0.03;;;0.03;;
73898;SDS011;62234;50.892;12.724;2023-10-31T07:42:05;0.10;;;0.10;;
73898;SDS011;62234;50.892;12.724;2023-10-31T07:44:31;0.10;;;0.00;;
73898;SDS011;62234;50.892;12.724;2023-10-31T07:46:57;0.10;;;0.10;;
73898;SDS011;62234;50.892;12.724;2023-10-31T07:49:22;0.32;;;0.00;;
73898;SDS011;62234;50.892;12.724;2023-10-31T07:51:48;0.10;;;0.10;;
73898;SDS011;62234;50.892;12.724;2023-10-31T07:54:15;0.00;;;0.00;;
73898;SDS011;62234;50.892;12.724;2023-10-31T07:56:41;0.22;;;0.10;;
73898;SDS011;62234;50.892;12.724;2023-10-31T07:59:07;0.08;;;0.00;;
73898;SDS011;62234;50.892;12.724;2023-10-31T08:01:34;0.00;;;0.00;;
73898;SDS011;62234;50.892;12.724;2023-10-31T08:10:07;0.98;;;0.00;;
73898;SDS011;62234;50.892;12.724;2023-10-31T08:12:33;0.40;;;0.00;;
73898;SDS011;62234;50.892;12.724;2023-10-31T08:15:00;0.93;;;0.08;;
73898;SDS011;62234;50.892;12.724;2023-10-31T08:17:26;0.60;;;0.10;;
73898;SDS011;62234;50.892;12.724;2023-10-31T08:19:52;0.10;;;0.00;;
73898;SDS011;62234;50.892;12.724;2023-10-31T08:22:18;0.00;;;0.00;;
73898;SDS011;62234;50.892;12.724;2023-10-31T08:58:23;0.00;;;0.00;;
73898;SDS011;62234;50.892;12.724;2023-10-31T09:00:49;0.00;;;0.00;;
73898;SDS011;62234;50.892;12.724;2023-10-31T09:03:15;0.00;;;0.00;;
73898;SDS011;62234;50.892;12.724;2023-10-31T09:05:41;0.00;;;0.00;;
73898;SDS011;62234;50.892;12.724;2023-10-31T09:08:09;3.20;;;0.22;;
73898;SDS011;62234;50.892;12.724;2023-10-31T09:10:36;0.30;;;0.10;;
73898;SDS011;62234;50.892;12.724;2023-10-31T09:13:03;0.00;;;0.00;;
73898;SDS011;62234;50.892;12.724;2023-10-31T09:15:30;0.10;;;0.00;;
73898;SDS011;62234;50.892;12.724;2023-10-31T09:17:55;0.00;;;0.00;;
73898;SDS011;62234;50.892;12.724;2023-10-31T09:20:21;0.10;;;0.10;;
73898;SDS011;62234;50.892;12.724;2023-10-31T09:22:47;0.40;;;0.20;;
73898;SDS011;62234;50.892;12.724;2023-10-31T09:25:13;0.10;;;0.03;;
73898;SDS011;62234;50.892;12.724;2023-10-31T09:27:40;0.10;;;0.05;;
73898;SDS011;62234;50.892;12.724;2023-10-31T09:30:07;0.10;;;0.00;;
73898;SDS011;62234;50.892;12.724;2023-10-31T09:32:33;0.00;;;0.00;;
73898;SDS011;62234;50.892;12.724;2023-10-31T09:34:59;0.28;;;0.00;;
73898;SDS011;62234;50.892;12.724;2023-10-31T09:37:25;0.00;;;0.00;;
73898;SDS011;62234;50.892;12.724;2023-10-31T09:39:51;0.00;;;0.00;;
73898;SDS011;62234;50.892;12.724;2023-10-31T09:42:17;0.05;;;0.00;;
73898;SDS011;62234;50.892;12.724;2023-10-31T09:44:43;0.00;;;0.00;;
73898;SDS011;62234;50.892;12.724;2023-10-31T09:47:09;0.20;;;0.00;;
73898;SDS011;62234;50.892;12.724;2023-10-31T09:49:35;0.00;;;0.00;;
73898;SDS011;62234;50.892;12.724;2023-10-31T09:52:01;0.00;;;0.00;;
73898;SDS011;62234;50.892;12.724;2023-10-31T09:54:28;1.27;;;0.20;;
73898;SDS011;62234;50.892;12.724;2023-10-31T09:56:55;0.10;;;0.00;;
73898;SDS011;62234;50.892;12.724;2023-10-31T09:59:21;0.30;;;0.10;;
73898;SDS011;62234;50.892;12.724;2023-10-31T10:01:47;0.20;;;0.03;;
73898;SDS011;62234;50.892;12.724;2023-10-31T10:04:13;0.00;;;0.00;;
73898;SDS011;62234;50.892;12.724;2023-10-31T10:09:24;0.00;;;0.00;;
73898;SDS011;62234;50.892;12.724;2023-10-31T10:11:51;0.10;;;0.00;;
73898;SDS011;62234;50.892;12.724;2023-10-31T10:14:17;0.13;;;0.10;;
73898;SDS011;62234;50.892;12.724;2023-10-31T10:16:43;0.10;;;0.10;;
73898;SDS011;62234;50.892;12.724;2023-10-31T10:19:19;0.30;;;0.00;;
73898;SDS011;62234;50.892;12.724;2023-10-31T10:21:46;0.20;;;0.20;;
73898;SDS011;62234;50.892;12.724;2023-10-31T10:24:13;0.00;;;0.00;;
73898;SDS011;62234;50.892;12.724;2023-10-31T10:26:39;0.10;;;0.00;;
73898;SDS011;62234;50.892;12.724;2023-10-31T10:29:05;0.00;;;0.00;;
73898;SDS011;62234;50.892;12.724;2023-10-31T10:31:31;0.10;;;0.10;;
73898;SDS011;62234;50.892;12.724;2023-10-31T10:33:57;1.85;;;0.00;;
73898;SDS011;62234;50.892;12.724;2023-10-31T10:36:23;0.00;;;0.00;;
73898;SDS011;62234;50.892;12.724;2023-10-31T10:38:52;1.02;;;0.00;;
73898;SDS011;62234;50.892;12.724;2023-10-31T10:41:22;0.00;;;0.00;;
73898;SDS011;62234;50.892;12.724;2023-10-31T10:43:50;0.00;;;0.00;;
73898;SDS011;62234;50.892;12.724;2023-10-31T10:46:19;0.00;;;0.00;;
73898;SDS011;62234;50.892;12.724;2023-10-31T10:48:47;0.38;;;0.10;;
73898;SDS011;62234;50.892;12.724;2023-10-31T10:53:49;0.15;;;0.00;;
73898;SDS011;62234;50.892;12.724;2023-10-31T11:02:12;0.00;;;0.00;;
73898;SDS011;62234;50.892;12.724;2023-10-31T11:04:40;0.75;;;0.10;;
73898;SDS011;62234;50.892;12.724;2023-10-31T11:07:07;0.00;;;0.00;;
73898;SDS011;62234;50.892;12.724;2023-10-31T11:09:33;0.30;;;0.10;;
73898;SDS011;62234;50.892;12.724;2023-10-31T11:12:00;0.03;;;0.00;;
73898;SDS011;62234;50.892;12.724;2023-10-31T11:14:26;0.00;;;0.00;;
73898;SDS011;62234;50.892;12.724;2023-10-31T11:16:53;0.13;;;0.10;;
73898;SDS011;62234;50.892;12.724;2023-10-31T11:19:19;0.00;;;0.00;;
73898;SDS011;62234;50.892;12.724;2023-10-31T11:22:01;0.73;;;0.00;;
73898;SDS011;62234;50.892;12.724;2023-10-31T11:24:33;0.43;;;0.00;;
73898;SDS011;62234;50.892;12.724;2023-10-31T11:27:03;1.33;;;0.10;;
73898;SDS011;62234;50.892;12.724;2023-10-31T11:29:32;0.00;;;0.00;;
73898;SDS011;62234;50.892;12.724;2023-10-31T13:39:54;0.10;;;0.10;;
73898;SDS011;62234;50.892;12.724;2023-10-31T13:42:20;0.65;;;0.20;;
73898;SDS011;62234;50.892;12.724;2023-10-31T13:44:46;0.70;;;0.20;;
73898;SDS011;62234;50.892;12.724;2023-10-31T13:47:13;0.20;;;0.20;;
73898;SDS011;62234;50.892;12.724;2023-10-31T13:49:39;17.92;;;0.63;;
73898;SDS011;62234;50.892;12.724;2023-10-31T13:52:05;0.20;;;0.10;;
73898;SDS011;62234;50.892;12.724;2023-10-31T13:54:31;0.45;;;0.38;;
73898;SDS011;62234;50.892;12.724;2023-10-31T13:56:57;0.10;;;0.10;;
73898;SDS011;62234;50.892;12.724;2023-10-31T13:59:24;3.05;;;0.20;;
73898;SDS011;62234;50.892;12.724;2023-10-31T14:23:15;0.93;;;0.15;;
73898;SDS011;62234;50.892;12.724;2023-10-31T14:25:41;0.35;;;0.20;;
73898;SDS011;62234;50.892;12.724;2023-10-31T14:28:07;0.22;;;0.20;;
73898;SDS011;62234;50.892;12.724;2023-10-31T14:30:33;0.15;;;0.13;;
73898;SDS011;62234;50.892;12.724;2023-10-31T14:32:59;0.20;;;0.20;;
73898;SDS011;62234;50.892;12.724;2023-10-31T14:35:25;0.30;;;0.17;;
73898;SDS011;62234;50.892;12.724;2023-10-31T14:37:51;0.32;;;0.32;;
73898;SDS011;62234;50.892;12.724;2023-10-31T17:03:28;0.60;;;0.50;;
73898;SDS011;62234;50.892;12.724;2023-10-31T17:05:54;0.38;;;0.35;;
73898;SDS011;62234;50.892;12.724;2023-10-31T17:08:20;0.45;;;0.43;;
73898;SDS011;62234;50.892;12.724;2023-10-31T17:10:46;0.93;;;0.43;;
73898;SDS011;62234;50.892;12.724;2023-10-31T17:13:12;1.35;;;0.50;;
73898;SDS011;62234;50.892;12.724;2023-10-31T17:15:38;0.40;;;0.38;;
73898;SDS011;62234;50.892;12.724;2023-10-31T17:18:04;0.40;;;0.40;;
73898;SDS011;62234;50.892;12.724;2023-10-31T17:20:31;1.02;;;0.55;;
73898;SDS011;62234;50.892;12.724;2023-10-31T17:22:57;0.60;;;0.35;;
73898;SDS011;62234;50.892;12.724;2023-10-31T17:25:23;1.02;;;0.43;;
73898;SDS011;62234;50.892;12.724;2023-10-31T17:27:49;0.55;;;0.30;;
73898;SDS011;62234;50.892;12.724;2023-10-31T17:30:15;0.47;;;0.38;;
73898;SDS011;62234;50.892;12.724;2023-10-31T17:32:41;0.50;;;0.40;;
73898;SDS011;62234;50.892;12.724;2023-10-31T17:35:08;2.67;;;0.30;;
73898;SDS011;62234;50.892;12.724;2023-10-31T17:37:34;1.05;;;0.30;;
73898;SDS011;62234;50.892;12.724;2023-10-31T17:40:00;6.75;;;0.60;;
73898;SDS011;62234;50.892;12.724;2023-10-31T17:42:26;0.80;;;0.40;;
73898;SDS011;62234;50.892;12.724;2023-10-31T17:44:53;0.40;;;0.40;;
73898;SDS011;62234;50.892;12.724;2023-10-31T17:47:19;0.68;;;0.60;;
73898;SDS011;62234;50.892;12.724;2023-10-31T17:49:45;1.17;;;0.40;;
73898;SDS011;62234;50.892;12.724;2023-10-31T17:52:11;1.05;;;0.45;;
73898;SDS011;62234;50.892;12.724;2023-10-31T17:54:37;1.42;;;0.50;;
73898;SDS011;62234;50.892;12.724;2023-10-31T17:57:06;0.60;;;0.60;;
73898;SDS011;62234;50.892;12.724;2023-10-31T17:59:32;1.38;;;0.60;;
73898;SDS011;62234;50.892;12.724;2023-10-31T18:01:58;3.28;;;1.08;;
73898;SDS011;62234;50.892;12.724;2023-10-31T18:04:24;2.03;;;0.50;;
73898;SDS011;62234;50.892;12.724;2023-10-31T18:06:50;0.73;;;0.60;;
73898;SDS011;62234;50.892;12.724;2023-10-31T18:09:15;0.60;;;0.25;;
73898;SDS011;62234;50.892;12.724;2023-10-31T18:11:42;2.08;;;0.60;;
73898;SDS011;62234;50.892;12.724;2023-10-31T18:14:08;1.35;;;0.30;;
73898;SDS011;62234;50.892;12.724;2023-10-31T18:16:35;1.00;;;0.50;;
73898;SDS011;62234;50.892;12.724;2023-10-31T18:19:01;0.57;;;0.40;;
73898;SDS011;62234;50.892;12.724;2023-10-31T18:24:37;0.45;;;0.20;;
73898;SDS011;62234;50.892;12.724;2023-10-31T18:27:03;2.00;;;0.40;;
73898;SDS011;62234;50.892;12.724;2023-10-31T18:29:31;1.30;;;0.45;;
73898;SDS011;62234;50.892;12.724;2023-10-31T18:31:57;0.52;;;0.40;;
73898;SDS011;62234;50.892;12.724;2023-10-31T18:34:24;0.40;;;0.40;;
73898;SDS011;62234;50.892;12.724;2023-10-31T18:36:50;0.45;;;0.45;;
73898;SDS011;62234;50.892;12.724;2023-10-31T18:39:16;1.42;;;0.47;;
73898;SDS011;62234;50.892;12.724;2023-10-31T18:41:42;1.40;;;1.05;;
73898;SDS011;62234;50.892;12.724;2023-10-31T18:44:08;0.30;;;0.30;;
73898;SDS011;62234;50.892;12.724;2023-10-31T18:46:34;1.77;;;0.20;;
73898;SDS011;62234;50.892;12.724;2023-10-31T19:04:18;0.50;;;0.50;;
73898;SDS011;62234;50.892;12.724;2023-10-31T19:12:52;1.30;;;0.60;;
73898;SDS011;62234;50.892;12.724;2023-10-31T19:15:18;0.85;;;0.45;;
73898;SDS011;62234;50.892;12.724;2023-10-31T19:17:44;0.50;;;0.43;;
73898;SDS011;62234;50.892;12.724;2023-10-31T19:20:10;1.05;;;0.38;;
73898;SDS011;62234;50.892;12.724;2023-10-31T19:22:36;1.65;;;0.35;;
73898;SDS011;62234;50.892;12.724;2023-10-31T19:25:02;2.63;;;0.52;;
73898;SDS011;62234;50.892;12.724;2023-10-31T19:27:28;1.23;;;0.50;;
73898;SDS011;62234;50.892;12.724;2023-10-31T19:51:22;0.30;;;0.20;;
73898;SDS011;62234;50.892;12.724;2023-10-31T19:56:52;3.92;;;0.30;;
73898;SDS011;62234;50.892;12.724;2023-10-31T19:59:18;0.47;;;0.43;;
73898;SDS011;62234;50.892;12.724;2023-10-31T20:01:44;0.82;;;0.40;;
73898;SDS011;62234;50.892;12.724;2023-10-31T20:10:17;2.38;;;0.50;;
73898;SDS011;62234;50.892;12.724;2023-10-31T20:12:43;0.93;;;0.50;;
73898;SDS011;62234;50.892;12.724;2023-10-31T20:15:09;1.23;;;0.52;;
73898;SDS011;62234;50.892;12.724;2023-10-31T20:17:35;0.50;;;0.20;;
73898;SDS011;62234;50.892;12.724;2023-10-31T20:20:01;2.85;;;0.65;;
73898;SDS011;62234;50.892;12.724;2023-10-31T20:22:28;1.70;;;0.40;;
73898;SDS011;62234;50.892;12.724;2023-10-31T20:24:54;1.75;;;0.25;;
73898;SDS011;62234;50.892;12.724;2023-10-31T20:27:20;1.75;;;0.50;;
73898;SDS011;62234;50.892;12.724;2023-10-31T20:29:46;2.75;;;0.40;;
73898;SDS011;62234;50.892;12.724;2023-10-31T20:32:12;2.30;;;0.50;;
73898;SDS011;62234;50.892;12.724;2023-10-31T20:34:38;0.30;;;0.30;;
73898;SDS011;62234;50.892;12.724;2023-10-31T20:37:04;1.00;;;0.40;;
73898;SDS011;62234;50.892;12.724;2023-10-31T20:39:30;0.40;;;0.40;;
73898;SDS011;62234;50.892;12.724;2023-10-31T20:41:56;0.40;;;0.40;;
73898;SDS011;62234;50.892;12.724;2023-10-31T20:44:22;0.60;;;0.60;;
73898;SDS011;62234;50.892;12.724;2023-10-31T20:46:48;0.25;;;0.25;;
73898;SDS011;62234;50.892;12.724;2023-10-31T20:49:16;0.60;;;0.43;;
73898;SDS011;62234;50.892;12.724;2023-10-31T20:51:42;1.05;;;0.50;;
73898;SDS011;62234;50.892;12.724;2023-10-31T20:54:09;1.52;;;0.40;;
73898;SDS011;62234;50.892;12.724;2023-10-31T20:56:35;1.13;;;0.55;;
73898;SDS011;62234;50.892;12.724;2023-10-31T22:07:02;4.72;;;1.45;;
73898;SDS011;62234;50.892;12.724;2023-10-31T22:09:28;3.57;;;1.47;;
73898;SDS011;62234;50.892;12.724;2023-10-31T22:11:55;1.40;;;0.63;;
73898;SDS011;62234;50.892;12.724;2023-10-31T22:14:21;1.20;;;0.90;;
73898;SDS011;62234;50.892;12.724;2023-10-31T22:16:47;2.50;;;1.00;;